Time;durP1;ratioP1;P1;durP2;ratioP2;P2;SDS_P1;SDS_P2;PMS_P1;PMS_P2;Temp;Humidity;BMP_temperature;BMP_pressure;BME280_temperature;BME280_humidity;BME280_pressure;Samples;Min_cycle;Max_cycle;Signal;HPM_P1;HPM_P2
2022/08/29 00:01:59;;;;;;;;;;;;;;;17.15;77.26;98256.56;5047934;28;19925;-79
2022/08/29 00:08:00;;;;;;;;;;;;;;;17.14;77.29;98250.28;5042023;28;19925;-80
2022/08/29 00:10:49;;;;;;;;;;;;;;;17.15;77.05;98251.06;5044302;28;19920;-79
2022/08/29 00:13:37;;;;;;;9.75;4.80;;;;;;;17.17;76.78;98249.59;5041888;28;20115;-80
2022/08/29 00:16:27;;;;;;;;;;;;;;;17.11;77.15;98245.50;5040802;28;20412;-78
2022/08/29 00:19:15;;;;;;;;;;;;;;;17.14;76.84;98244.00;5039142;28;19931;-79
2022/08/29 00:22:04;;;;;;;;;;;;;;;17.09;77.06;98246.97;5039862;28;19920;-80
2022/08/29 00:24:52;;;;;;;;;;;;;;;16.86;77.89;98252.94;5043312;28;20000;-80
2022/08/29 00:27:41;;;;;;;;;;;;;;;16.90;77.62;98250.31;5043355;28;20319;-79
2022/08/29 00:30:30;;;;;;;;;;;;;;;16.92;77.83;98248.03;5037936;28;19994;-80
2022/08/29 00:33:20;;;;;;;;;;;;;;;16.97;77.23;98250.53;5041609;28;19927;-78
2022/08/29 00:36:09;;;;;;;;;;;;;;;17.04;77.17;98248.00;5040956;28;19925;-79
2022/08/29 00:38:58;;;;;;;;;;;;;;;17.07;76.69;98254.75;5045983;28;19932;-78
2022/08/29 00:41:49;;;;;;;;;;;;;;;17.04;76.91;98256.25;5046502;28;19928;-79
2022/08/29 00:44:38;;;;;;;;;;;;;;;17.05;76.30;98254.31;5041519;28;19928;-80
2022/08/29 00:47:27;;;;;;;;;;;;;;;17.02;76.74;98247.56;5044258;28;19920;-80
2022/08/29 00:50:19;;;;;;;;;;;;;;;17.04;76.49;98256.25;5039015;28;20000;-79
2022/08/29 00:53:09;;;;;;;;;;;;;;;16.99;76.70;98259.22;5046280;28;19928;-79
2022/08/29 00:55:57;;;;;;;;;;;;;;;16.94;76.54;98259.47;5046280;28;19924;-80
2022/08/29 00:58:49;;;;;;;;;;;;;;;16.96;76.19;98254.44;5054761;28;19920;-80
2022/08/29 01:01:37;;;;;;;;;;;;;;;16.94;76.65;98262.22;5040979;28;19939;-81
2022/08/29 01:04:25;;;;;;;;;;;;;;;16.77;77.23;98266.78;5045631;28;19927;-79
2022/08/29 01:07:39;;;;;;;;;;;;;;;16.82;77.12;98257.53;5037724;28;19970;-77
2022/08/29 01:14:03;;;;;;;;;;;;;;;16.86;76.82;98265.88;5043525;28;19952;-79
2022/08/29 01:16:52;;;;;;;;;;;;;;;16.84;77.11;98268.16;5041827;28;20287;-80
2022/08/29 01:19:41;;;;;;;;;;;;;;;16.81;76.98;98269.66;5045912;28;19924;-79
2022/08/29 01:22:51;;;;;;;;;;;;;;;16.72;77.18;98271.69;5046260;28;19955;-79
2022/08/29 01:25:44;;;;;;;;;;;;;;;16.66;77.54;98273.84;5044197;28;19975;-79
2022/08/29 01:28:34;;;;;;;;;;;;;;;16.67;77.40;98280.94;5039553;28;20534;-80
2022/08/29 01:31:26;;;;;;;;;;;;;;;16.64;76.98;98281.63;5045861;28;19974;-78
2022/08/29 01:34:34;;;;;;;;;;;;;;;16.63;77.12;98274.53;5042697;28;20012;-80
2022/08/29 01:37:23;;;;;;;;;;;;;;;16.53;77.37;98274.97;5041537;28;19927;-79
2022/08/29 01:40:11;;;;;;;;;;;;;;;16.52;77.36;98278.88;5045623;28;19999;-81
2022/08/29 01:43:01;;;;;;;;;;;;;;;16.46;77.59;98278.28;5047037;28;19924;-80
2022/08/29 01:45:50;;;;;;;;;;;;;;;16.40;77.75;98276.09;5046766;28;19942;-80
2022/08/29 01:48:41;;;;;;;;;;;;;;;16.42;77.85;98276.56;5041571;28;19928;-80
2022/08/29 01:51:30;;;;;;;;;;;;;;;16.44;77.36;98277.03;5041959;28;19928;-79
2022/08/29 01:54:19;;;;;;;;;;;;;;;16.39;77.61;98275.28;5047660;28;19928;-80
2022/08/29 01:57:09;;;;;;;;;;;;;;;16.42;77.59;98280.13;5035346;28;19983;-79
2022/08/29 02:00:02;;;;;;;;;;;;;;;16.45;77.20;98284.91;5044393;28;20398;-79
2022/08/29 02:02:52;;;;;;;;;;;;;;;16.48;77.15;98283.44;5044934;28;20547;-78
2022/08/29 02:05:40;;;;;;;;;;;;;;;16.47;77.11;98285.38;5038612;28;19974;-79
2022/08/29 02:08:29;;;;;;;;;;;;;;;16.38;77.57;98289.34;5042047;28;19933;-80
2022/08/29 02:11:17;;;;;;;;;;;;;;;16.35;77.46;98284.53;5043107;28;19921;-77
2022/08/29 02:14:06;;;;;;;;;;;;;;;16.31;77.56;98283.63;5041358;28;19920;-79
2022/08/29 02:16:55;;;;;;;;;;;;;;;16.05;78.67;98278.44;5038020;28;20059;-79
2022/08/29 02:19:44;;;;;;;;;;;;;;;16.04;79.09;98271.34;5056806;28;20304;-77
2022/08/29 02:22:32;;;;;;;;;;;;;;;15.92;79.33;98272.88;5045056;28;19921;-79
2022/08/29 02:28:27;;;;;;;;;;;;;;;16.03;78.76;98270.53;5038859;28;20295;-80
2022/08/29 02:31:16;;;;;;;;;;;;;;;16.05;78.46;98270.22;5041930;28;19925;-79
2022/08/29 02:34:06;;;;;;;;;;;;;;;16.01;78.59;98274.75;5041545;28;20442;-79
2022/08/29 02:36:54;;;;;;;;;;;;;;;15.99;78.50;98275.09;5047965;28;19925;-81
2022/08/29 02:39:45;;;;;;;;;;;;;;;16.10;77.96;98272.75;5045070;28;19924;-78
2022/08/29 02:42:33;;;;;;;;;;;;;;;16.14;77.73;98268.16;5044270;28;19920;-80
2022/08/29 02:45:22;;;;;;;;;;;;;;;16.10;77.67;98267.25;5041307;28;19933;-80
2022/08/29 02:48:11;;;;;;;;;;;;;;;16.03;77.61;98262.31;5042225;28;20387;-79
2022/08/29 02:51:01;;;;;;;;;;;;;;;15.97;77.92;98266.41;5042306;28;19936;-79
2022/08/29 02:53:49;;;;;;;;;;;;;;;15.95;77.93;98272.22;5030448;28;20020;-80
2022/08/29 02:56:38;;;;;;;;;;;;;;;15.92;78.19;98272.09;5039043;28;19967;-81
2022/08/29 02:59:26;;;;;;;;;;;;;;;15.94;78.08;98275.31;5038491;28;20015;-80
2022/08/29 03:02:15;;;;;;;;;;;;;;;15.97;77.81;98269.13;5037290;28;19928;-79
2022/08/29 03:05:03;;;;;;;;;;;;;;;16.04;77.42;98280.38;5041596;28;19932;-79
2022/08/29 03:08:17;;;;;;;;;;;;;;;15.88;78.45;98273.94;5035572;28;19967;-79
2022/08/29 03:11:09;;;;;;;;;;;;;;;15.89;78.57;98281.00;5051256;28;19966;-80
2022/08/29 03:14:23;;;;;;;;;;;;;;;15.79;78.60;98284.97;5044578;28;19928;-77
2022/08/29 03:17:11;;;;;;;;;;;;;;;15.89;77.89;98278.25;5039935;28;19920;-80
2022/08/29 03:20:00;;;;;;;;;;;;;;;15.85;77.89;98285.53;5033914;28;20280;-80
2022/08/29 03:22:49;;;;;;;;;;;;;;;15.80;77.76;98283.81;5043579;28;19924;-79
2022/08/29 03:25:37;;;;;;;;;;;;;;;15.87;77.77;98281.34;5045847;28;20490;-80
2022/08/29 03:28:27;;;;;;;;;;;;;;;15.85;77.58;98293.75;5056253;28;19932;-79
2022/08/29 03:31:16;;;;;;;;;;;;;;;15.82;77.53;98288.94;5038662;28;19928;-80
2022/08/29 03:34:05;;;;;;;;;;;;;;;15.78;77.73;98290.78;5037348;28;19948;-80
2022/08/29 03:36:54;;;;;;;;;;;;;;;15.76;77.94;98293.03;5044925;28;19924;-80
2022/08/29 03:39:42;;;;;;;;;;;;;;;15.76;77.73;98293.03;5042002;28;19940;-78
2022/08/29 03:42:30;;;;;;;;;;;;;;;15.79;77.45;98290.44;5050561;28;20022;-80
2022/08/29 03:45:20;;;;;;;;;;;;;;;15.76;77.74;98290.28;5041624;28;19920;-78
2022/08/29 03:48:09;;;;;;;;;;;;;;;15.74;78.02;98289.84;5041146;28;20079;-81
2022/08/29 03:50:57;;;;;;;;;;;;;;;15.69;78.12;98286.16;5034229;28;19948;-80
2022/08/29 03:53:46;;;;;;;;;;;;;;;15.68;78.49;98292.78;5037776;28;20020;-80
2022/08/29 03:56:35;;;;;;;;;;;;;;;15.73;78.19;98291.78;5042514;28;19927;-81
2022/08/29 03:59:23;;;;;;;;;;;;;;;15.73;78.25;98274.56;5041403;28;19931;-78
2022/08/29 04:02:13;;;;;;;;;;;;;;;15.78;77.77;98286.09;5037442;28;19925;-81
2022/08/29 04:05:07;;;;;;;;;;;;;;;15.75;78.07;98291.44;5044808;28;19935;-81
2022/08/29 04:07:56;;;;;;;;;;;;;;;15.60;78.08;98293.63;5043173;28;20109;-80
2022/08/29 04:10:45;;;;;;;;;;;;;;;15.49;78.43;98297.09;5042727;28;19925;-77
2022/08/29 04:13:33;;;;;;;;;;;;;;;15.46;78.41;98287.63;5041507;28;19931;-79
2022/08/29 04:16:22;;;;;;;;;;;;;;;15.51;78.11;98295.63;5043868;28;20451;-79
2022/08/29 04:19:12;;;;;;;;;;;;;;;15.59;77.91;98296.69;5038993;28;20032;-79
2022/08/29 04:22:01;;;;;;;;;;;;;;;15.68;77.50;98294.72;5043854;28;20014;-78
2022/08/29 04:24:51;;;;;;;;;;;;;;;15.56;77.66;98292.69;5041469;28;19921;-79
2022/08/29 04:27:41;;;;;;;;;;;;;;;15.37;77.76;98297.84;5029045;28;20334;-79
2022/08/29 04:30:29;;;;;;;;;;;;;;;15.40;78.10;98305.41;5046286;28;19951;-80
2022/08/29 04:33:18;;;;;;;;;;;;;;;15.46;77.70;98295.84;5049303;28;20326;-79
2022/08/29 04:36:11;;;;;;;;;;;;;;;15.53;77.51;98304.31;5041453;28;20554;-80
2022/08/29 04:39:24;;;;;;;;;;;;;;;15.49;77.77;98305.31;5038119;28;20019;-77
2022/08/29 04:42:12;;;;;;;;;;;;;;;15.48;77.75;98300.97;5043632;28;19927;-80
2022/08/29 04:45:04;;;;;;;;;;;;;;;15.54;77.36;98311.38;5043121;28;19936;-79
2022/08/29 04:47:53;;;;;;;;;;;;;;;15.51;77.92;98314.00;5043675;28;20746;-81
2022/08/29 04:50:44;;;;;;;;;;;;;;;15.45;77.77;98324.38;5047452;28;19928;-84
2022/08/29 04:53:33;;;;;;;;;;;;;;;15.49;77.81;98317.06;5053848;28;19928;-83
2022/08/29 04:56:24;;;;;;;;;;;;;;;15.48;78.41;98329.16;5046524;28;20019;-78
2022/08/29 04:59:13;;;;;;;;;;;;;;;15.50;78.04;98326.91;5040613;28;20619;-79
2022/08/29 05:02:01;;;;;;;;;;;;;;;15.44;77.91;98330.94;5039783;28;19925;-82
2022/08/29 05:05:15;;;;;;;;;;;;;;;15.43;78.26;98332.09;5040275;28;20507;-80
2022/08/29 05:08:04;;;;;;;;;;;;;;;15.44;78.14;98337.22;5047591;28;20033;-82
2022/08/29 05:10:53;;;;;;;;;;;;;;;15.54;78.04;98335.22;5046001;28;20067;-78
2022/08/29 05:13:42;;;;;;;;;;;;;;;15.56;77.45;98346.69;5054825;28;19928;-82
2022/08/29 05:16:35;;;;;;;;;;;;;;;15.64;77.30;98345.81;5046925;28;19971;-85
2022/08/29 05:19:52;;;;;;;;;;;;;;;15.57;77.30;98348.28;5045738;28;19932;-79
2022/08/29 05:22:41;;;;;;;10.00;5.20;;;;;;;15.40;77.59;98341.78;5052865;28;20397;-82
2022/08/29 05:28:46;;;;;;;;;;;;;;;15.46;77.43;98342.38;5041538;28;19926;-80
2022/08/29 05:32:02;;;;;;;;;;;;;;;15.39;77.56;98336.63;5049064;28;19924;-83
2022/08/29 05:34:51;;;;;;;9.85;4.10;;;;;;;15.34;77.59;98334.06;5040380;28;20804;-85
2022/08/29 05:37:39;;;;;;;136.80;65.35;;;;;;;15.59;77.37;98335.03;5051085;28;20478;-85
2022/08/29 05:40:28;;;;;;;610.08;217.98;;;;;;;15.46;77.72;98334.97;5045322;28;20393;-87
2022/08/29 05:43:17;;;;;;;10.10;4.20;;;;;;;15.42;77.32;98344.19;5033394;28;20458;-83
2022/08/29 05:46:10;;;;;;;;;;;;;;;15.47;77.34;98346.72;5044854;28;20407;-83
2022/08/29 05:48:58;;;;;;;;;;;;;;;15.50;76.82;98340.59;5036808;28;19990;-84
2022/08/29 05:51:49;;;;;;;;;;;;;;;15.56;76.82;98342.00;5044925;28;20655;-84
2022/08/29 05:54:39;;;;;;;;;;;;;;;15.78;76.31;98349.09;5039082;28;20020;-82
2022/08/29 05:57:27;;;;;;;;;;;;;;;15.63;76.27;98344.22;5041757;28;19928;-82
2022/08/29 06:00:16;;;;;;;;;;;;;;;15.67;76.26;98340.50;5043029;28;19921;-84
2022/08/29 06:03:06;;;;;;;;;;;;;;;15.53;76.08;98350.88;5045851;28;19936;-83
2022/08/29 06:05:54;;;;;;;;;;;;;;;15.61;75.96;98347.28;5060608;28;20027;-83
2022/08/29 06:11:56;;;;;;;;;;;;;;;15.69;75.54;98343.69;5040161;28;19925;-84
2022/08/29 06:14:45;;;;;;;;;;;;;;;15.79;75.43;98345.22;5041818;28;19940;-84
2022/08/29 06:18:03;;;;;;;;;;;;;;;15.71;75.54;98343.34;5046524;28;19920;-84
2022/08/29 06:20:53;;;;;;;;;;;;;;;15.90;75.12;98351.09;5042737;28;19925;-85
2022/08/29 06:23:42;;;;;;;;;;;;;;;15.95;75.29;98348.16;5040429;28;19932;-83
2022/08/29 06:26:30;;;;;;;;;;;;;;;16.04;74.65;98350.81;5039881;28;20422;-87
2022/08/29 06:29:19;;;;;;;;;;;;;;;16.04;74.60;98351.63;5041561;28;19979;-82
2022/08/29 06:32:07;;;;;;;;;;;;;;;16.16;74.52;98354.41;5041911;28;19955;-84
2022/08/29 06:34:56;;;;;;;;;;;;;;;16.35;73.83;98353.09;5041444;28;19921;-82
2022/08/29 06:37:46;;;;;;;;;;;;;;;16.34;73.87;98355.03;5044713;28;19935;-85
2022/08/29 06:40:34;;;;;;;;;;;;;;;16.48;73.57;98355.53;5038073;28;19920;-83
2022/08/29 06:43:23;;;;;;;;;;;;;;;16.40;73.24;98359.16;5040771;28;20433;-83
2022/08/29 06:46:37;;;;;;;;;;;;;;;16.58;73.02;98365.28;5036062;28;19921;-84
2022/08/29 06:49:26;;;;;;;;;;;;;;;16.55;72.14;98374.16;5038996;28;19991;-81
2022/08/29 06:52:14;;;;;;;;;;;;;;;16.64;71.96;98369.41;5034740;28;19925;-82
2022/08/29 06:55:10;;;;;;;;;;;;;;;16.83;71.22;98371.66;5045593;28;20057;-81
2022/08/29 06:57:58;;;;;;;;;;;;;;;16.71;71.88;98360.63;5035391;28;19925;-82
2022/08/29 07:00:48;;;;;;;;;;;;;;;16.97;71.23;98368.56;5040480;28;20090;-82
2022/08/29 07:03:37;;;;;;;;;;;;;;;16.96;70.91;98372.44;5040786;28;19921;-82
2022/08/29 07:06:25;;;;;;;;;;;;;;;17.06;69.97;98369.25;5039764;28;19924;-85
2022/08/29 07:09:14;;;;;;;;;;;;;;;17.19;69.87;98373.59;5038054;28;19991;-82
2022/08/29 07:12:05;;;;;;;;;;;;;;;17.30;69.71;98376.69;5037998;28;19928;-83
2022/08/29 07:18:06;;;;;;;;;;;;;;;17.42;68.88;98371.19;5043084;28;19924;-82
2022/08/29 07:20:54;;;;;;;;;;;;;;;17.62;69.04;98377.66;5047026;28;20506;-82
2022/08/29 07:23:43;;;;;;;;;;;;;;;17.52;68.36;98375.41;5043669;28;19921;-81
2022/08/29 07:26:35;;;;;;;;;;;;;;;17.45;68.56;98369.69;5052716;28;19921;-81
2022/08/29 07:29:24;;;;;;;;;;;;;;;17.57;68.26;98372.41;5046452;28;19936;-84
2022/08/29 07:32:13;;;;;;;;;;;;;;;17.98;68.01;98381.53;5037206;28;19921;-84
2022/08/29 07:35:01;;;;;;;;;;;;;;;18.24;66.90;98376.38;5035639;28;20014;-82
2022/08/29 07:37:50;;;;;;;14.57;6.35;;;;;;;18.37;66.68;98377.13;5041356;28;20399;-84
2022/08/29 07:40:41;;;;;;;122.38;45.72;;;;;;;18.28;66.13;98373.75;5030904;28;20393;-80
2022/08/29 07:43:31;;;;;;;5.72;3.03;;;;;;;18.19;65.63;98376.63;5036526;28;20740;-84
2022/08/29 07:46:20;;;;;;;5.67;3.10;;;;;;;18.37;64.98;98382.63;5038364;28;21134;-83
2022/08/29 07:49:10;;;;;;;6.18;3.30;;;;;;;18.23;65.63;98383.03;5033029;28;20492;-83
2022/08/29 07:51:59;;;;;;;10.35;3.65;;;;;;;18.24;65.34;98384.63;5035483;28;20749;-86
2022/08/29 07:54:47;;;;;;;8.10;3.17;;;;;;;18.42;65.22;98384.31;5035214;28;20576;-81
2022/08/29 07:57:36;;;;;;;8.07;3.45;;;;;;;18.82;64.71;98387.78;5033973;28;20401;-82
2022/08/29 08:00:30;;;;;;;16.10;5.25;;;;;;;19.02;63.59;98385.16;5041612;28;21078;-84
2022/08/29 08:03:20;;;;;;;7.18;2.97;;;;;;;19.04;64.18;98382.84;5038568;28;20489;-86
2022/08/29 08:06:10;;;;;;;8.02;3.33;;;;;;;18.76;63.79;98389.22;5040281;28;20448;-84
2022/08/29 08:08:59;;;;;;;7.78;3.30;;;;;;;18.72;64.24;98385.56;5040228;28;20552;-83
2022/08/29 08:11:48;;;;;;;230.02;110.85;;;;;;;18.77;64.37;98385.31;5040355;28;20492;-83
2022/08/29 08:14:36;;;;;;;;;;;;;;;18.91;66.44;98378.56;5044344;28;20399;-83
2022/08/29 08:17:25;;;;;;;157.35;67.75;;;;;;;19.05;63.88;98381.66;5044291;28;20395;-84
2022/08/29 08:20:15;;;;;;;89.03;43.03;;;;;;;19.26;62.20;98384.16;5035346;28;20909;-83
2022/08/29 08:23:05;;;;;;;58.97;25.27;;;;;;;19.37;61.73;98391.50;5043279;28;20850;-84
2022/08/29 08:25:59;;;;;;;6.43;3.10;;;;;;;19.60;61.20;98396.38;5038969;28;20387;-82
2022/08/29 08:28:48;;;;;;;5.68;3.25;;;;;;;19.66;59.98;98397.72;5044047;28;20413;-82
2022/08/29 08:34:50;;;;;;;6.05;2.70;;;;;;;19.40;59.71;98398.28;5040155;28;20417;-85
2022/08/29 08:37:43;;;;;;;5.97;2.50;;;;;;;19.74;60.87;98395.91;5036026;28;20527;-84
2022/08/29 08:40:41;;;;;;;6.35;2.90;;;;;;;19.86;59.29;98396.56;5043130;28;20491;-81
2022/08/29 08:43:38;;;;;;;6.20;2.75;;;;;;;19.94;59.64;98394.00;5037232;28;20396;-84
2022/08/29 08:46:35;;;;;;;5.65;2.55;;;;;;;20.23;58.21;98400.88;5039640;28;20411;-83
2022/08/29 08:49:31;;;;;;;5.90;2.92;;;;;;;20.07;57.83;98392.69;5037334;28;20405;-83
2022/08/29 08:52:24;;;;;;;7.88;3.30;;;;;;;20.16;58.25;98396.03;5038593;28;20402;-83
2022/08/29 08:55:27;;;;;;;6.72;2.83;;;;;;;20.36;58.26;98392.09;5041929;28;20494;-86
2022/08/29 08:58:26;;;;;;;6.63;2.85;;;;;;;20.45;58.12;98389.09;5036407;28;20408;-82
2022/08/29 09:01:20;;;;;;;7.10;2.70;;;;;;;20.59;57.42;98386.66;5041938;28;20412;-84
2022/08/29 09:04:21;;;;;;;6.95;3.08;;;;;;;20.54;57.42;98392.47;5037885;28;20811;-83
2022/08/29 09:07:22;;;;;;;6.95;2.83;;;;;;;20.65;57.87;98384.41;5043650;28;20413;-85
2022/08/29 09:10:22;;;;;;;5.90;2.72;;;;;;;20.62;57.56;98390.66;5038013;28;20498;-85
2022/08/29 09:13:20;;;;;;;7.45;3.10;;;;;;;20.66;56.83;98391.50;5033264;28;20392;-84
2022/08/29 09:16:16;;;;;;;7.35;3.05;;;;;;;20.59;57.22;98394.16;5039105;28;20505;-82
2022/08/29 09:19:08;;;;;;;6.22;2.65;;;;;;;20.91;57.44;98405.78;5042287;28;20439;-85
2022/08/29 09:22:00;;;;;;;6.57;2.63;;;;;;;21.14;56.15;98405.75;5041663;28;20401;-84
2022/08/29 09:24:54;;;;;;;6.72;2.80;;;;;;;20.96;56.63;98401.91;5036973;28;20544;-87
2022/08/29 09:27:44;;;;;;;12.98;5.32;;;;;;;20.90;57.70;98402.22;5035419;28;20414;-84
2022/08/29 09:30:35;;;;;;;71.93;34.05;;;;;;;21.02;57.47;98400.44;5037367;28;20432;-85
2022/08/29 09:33:23;;;;;;;205.13;96.17;;;;;;;21.13;56.02;98404.19;5035905;28;20399;-83
2022/08/29 09:36:13;;;;;;;9.60;6.43;;;;;;;21.09;56.40;98401.38;5040540;28;20915;-83
2022/08/29 09:39:27;;;;;;;6.25;2.33;;;;;;;21.25;55.76;98403.19;5036501;28;20405;-86
2022/08/29 09:42:21;;;;;;;14.32;6.18;;;;;;;21.33;56.09;98402.97;5037507;28;20421;-85
2022/08/29 09:45:19;;;;;;;56.67;36.17;;;;;;;21.47;55.93;98399.63;5037555;28;20392;-83
2022/08/29 09:48:10;;;;;;;5.82;2.85;;;;;;;21.45;55.73;98402.75;5040663;28;20959;-84
2022/08/29 09:51:13;;;;;;;6.25;3.03;;;;;;;21.28;55.28;98405.22;5040569;28;20907;-82
2022/08/29 09:54:17;;;;;;;8.70;2.95;;;;;;;21.52;55.05;98401.25;5038118;28;20401;-82
2022/08/29 09:57:13;;;;;;;7.93;3.10;;;;;;;21.58;55.56;98403.34;5050302;28;20528;-82
2022/08/29 10:00:11;;;;;;;8.13;2.85;;;;;;;21.60;54.44;98400.22;5038264;28;20423;-85
2022/08/29 10:03:04;;;;;;;7.00;3.00;;;;;;;21.58;54.63;98394.28;5039583;28;20401;-82
2022/08/29 10:06:07;;;;;;;7.35;2.90;;;;;;;21.84;54.52;98390.66;5042123;28;20405;-84
2022/08/29 10:09:03;;;;;;;7.43;2.78;;;;;;;21.84;54.14;98398.97;5032051;28;20484;-85
2022/08/29 10:11:57;;;;;;;6.30;3.05;;;;;;;21.94;53.82;98395.53;5044210;28;20948;-86
2022/08/29 10:14:49;;;;;;;6.38;2.92;;;;;;;21.71;53.30;98388.13;5035397;28;20505;-82
2022/08/29 10:18:22;;;;;;;6.43;2.87;;;;;;;21.88;53.94;98403.38;5045518;28;20390;-79
2022/08/29 10:21:16;;;;;;;;;;;;;;;21.79;53.85;98397.34;5035164;28;20419;-83
2022/08/29 10:24:23;;;;;;;;;;;;;;;21.89;53.06;98393.94;5041653;28;20457;-84
2022/08/29 10:27:16;;;;;;;;;;;;;;;22.07;53.31;98387.81;5043040;28;19925;-83
2022/08/29 10:30:06;;;;;;;;;;;;;;;22.14;52.99;98382.41;5041295;28;19921;-85
2022/08/29 10:33:10;;;;;;;;;;;;;;;22.18;52.14;98377.72;5040793;28;19978;-82
2022/08/29 10:36:01;;;;;;;;;;;;;;;22.20;53.15;98375.34;5038202;28;20487;-83
2022/08/29 10:39:14;;;;;;;;;;;;;;;22.06;51.98;98375.16;5040996;28;20012;-85
2022/08/29 10:42:05;;;;;;;;;;;;;;;22.09;52.72;98379.94;5036011;28;20232;-84
2022/08/29 10:44:57;;;;;;;;;;;;;;;22.19;52.53;98382.06;5044152;28;19928;-84
2022/08/29 10:47:49;;;;;;;;;;;;;;;22.12;52.59;98384.75;5046207;28;20454;-83
2022/08/29 10:50:40;;;;;;;;;;;;;;;22.26;51.49;98378.59;5040266;28;19924;-85
2022/08/29 10:53:34;;;;;;;;;;;;;;;22.32;51.65;98379.84;5044076;28;19957;-87
2022/08/29 10:56:25;;;;;;;8.48;2.95;;;;;;;22.44;52.26;98374.88;5037460;28;20425;-82
2022/08/29 10:59:17;;;;;;;6.25;2.90;;;;;;;22.60;52.24;98382.94;5041010;28;20437;-86
2022/08/29 11:02:07;;;;;;;;;;;;;;;22.79;51.61;98381.13;5040812;28;20419;-86
2022/08/29 11:05:21;;;;;;;;;;;;;;;22.76;51.47;98385.47;5039702;28;19927;-83
2022/08/29 11:08:13;;;;;;;;;;;;;;;22.85;49.40;98385.16;5038646;28;20500;-84
2022/08/29 11:11:28;;;;;;;;;;;;;;;22.88;50.03;98389.97;5044396;28;20376;-84
2022/08/29 11:14:22;;;;;;;;;;;;;;;22.99;49.44;98388.09;5035429;28;19925;-86
2022/08/29 11:20:26;;;;;;;;;;;;;;;22.76;49.67;98374.41;5036083;28;20276;-87
2022/08/29 11:23:17;;;;;;;;;;;;;;;22.97;50.24;98371.84;5034666;28;19925;-84
2022/08/29 11:26:07;;;;;;;;;;;;;;;23.07;48.03;98372.34;5041673;28;19932;-82
2022/08/29 11:28:58;;;;;;;;;;;;;;;23.24;49.08;98371.69;5043194;28;19972;-84
2022/08/29 11:31:53;;;;;;;;;;;;;;;22.83;48.43;98368.91;5049620;28;19925;-76
2022/08/29 11:34:47;;;;;;;;;;;;;;;22.94;48.52;98364.31;5046399;28;19925;-86
2022/08/29 11:37:57;;;;;;;;;;;;;;;23.22;47.55;98368.47;5043493;28;19933;-87
2022/08/29 11:40:52;;;;;;;;;;;;;;;22.91;46.54;98364.28;5039244;28;19928;-82
2022/08/29 11:44:14;;;;;;;;;;;;;;;22.96;47.77;98366.72;5048234;28;19928;-82
2022/08/29 11:47:06;;;;;;;;;;;;;;;23.13;46.95;98368.81;5037889;28;19933;-84
2022/08/29 11:49:58;;;;;;;;;;;;;;;23.08;45.01;98366.41;5045340;28;19924;-85
2022/08/29 11:52:48;;;;;;;;;;;;;;;23.12;46.29;98353.38;5041018;28;19936;-84
2022/08/29 11:55:38;;;;;;;;;;;;;;;23.30;45.41;98349.94;5039596;28;19944;-85
2022/08/29 11:58:43;;;;;;;;;;;;;;;23.31;46.29;98349.56;5036523;28;19925;-83
2022/08/29 12:01:52;;;;;;;;;;;;;;;23.31;45.98;98352.31;5036429;28;20457;-82
2022/08/29 12:04:52;;;;;;;;;;;;;;;23.28;46.23;98353.13;5045110;28;19924;-82
2022/08/29 12:11:17;;;;;;;;;;;;;;;23.25;44.68;98351.88;5044282;28;19933;-85
2022/08/29 12:14:06;;;;;;;;;;;;;;;23.40;44.20;98344.47;5040159;28;19925;-83
2022/08/29 12:16:55;;;;;;;;;;;;;;;23.29;43.74;98340.03;5043208;28;20063;-84
2022/08/29 12:19:52;;;;;;;;;;;;;;;23.26;43.72;98336.84;5037456;28;19928;-82
2022/08/29 12:22:47;;;;;;;;;;;;;;;23.41;45.42;98336.94;5043910;28;19925;-80
2022/08/29 12:25:40;;;;;;;;;;;;;;;23.43;44.36;98335.38;5036512;28;20446;-81
2022/08/29 12:28:36;;;;;;;;;;;;;;;23.58;45.32;98338.22;5033980;28;19929;-84
2022/08/29 12:31:40;;;;;;;;;;;;;;;23.55;45.50;98336.25;5039275;28;20386;-87
2022/08/29 12:34:59;;;;;;;;;;;;;;;23.72;44.54;98330.03;5051569;28;19925;-85
2022/08/29 12:37:55;;;;;;;;;;;;;;;23.75;46.14;98335.59;5021802;28;19984;-82
2022/08/29 12:40:46;;;;;;;;;;;;;;;23.63;44.36;98332.34;5038005;28;19929;-85
2022/08/29 12:44:01;;;;;;;;;;;;;;;23.61;43.51;98329.16;5040215;28;19929;-85
2022/08/29 12:46:52;;;;;;;;;;;;;;;23.77;44.38;98327.69;5036321;28;20019;-81
2022/08/29 12:53:00;;;;;;;;;;;;;;;23.78;44.06;98311.81;5040874;28;20454;-84
2022/08/29 12:55:49;;;;;;;;;;;;;;;23.83;42.73;98300.34;5040466;28;19932;-84
2022/08/29 12:58:41;;;;;;;;;;;;;;;23.82;43.76;98304.31;5046278;28;19929;-84
2022/08/29 13:01:31;;;;;;;;;;;;;;;23.79;44.03;98305.09;5039267;28;19929;-82
2022/08/29 13:04:20;;;;;;;;;;;;;;;23.73;43.40;98306.66;5040675;28;20019;-84
2022/08/29 13:07:08;;;;;;;;;;;;;;;23.68;42.75;98301.47;5043267;28;19935;-83
2022/08/29 13:10:01;;;;;;;;;;;;;;;23.81;41.87;98305.50;5052872;28;20584;-84
2022/08/29 13:12:50;;;;;;;;;;;;;;;24.00;43.41;98296.84;5047110;28;20015;-82
2022/08/29 13:15:39;;;;;;;;;;;;;;;23.91;44.53;98287.28;5040381;28;19980;-84
2022/08/29 13:18:28;;;;;;;;;;;;;;;23.95;42.63;98288.09;5044352;28;20455;-85
2022/08/29 13:21:19;;;;;;;;;;;;;;;23.98;45.04;98287.34;5042743;28;19972;-83
2022/08/29 13:24:18;;;;;;;;;;;;;;;23.85;41.88;98281.34;5044631;28;19925;-86
2022/08/29 13:27:09;;;;;;;;;;;;;;;23.78;41.53;98273.78;5045228;28;19972;-87
2022/08/29 13:29:59;;;;;;;;;;;;;;;23.84;43.27;98276.97;5045297;28;19925;-86
2022/08/29 13:32:48;;;;;;;;;;;;;;;23.88;40.95;98272.25;5045873;28;19925;-82
2022/08/29 13:35:37;;;;;;;;;;;;;;;24.01;40.72;98276.22;5066673;28;19931;-80
2022/08/29 13:38:28;;;;;;;;;;;;;;;23.94;41.21;98265.13;5056491;28;20054;-85
2022/08/29 13:41:25;;;;;;;;;;;;;;;23.95;41.03;98268.69;5057629;28;19936;-79
2022/08/29 13:44:16;;;;;;;;;;;;;;;24.01;42.32;98264.34;5058183;28;19925;-80
2022/08/29 13:47:14;;;;;;;4.18;1.60;;;;;;;24.00;40.44;98262.75;5072789;28;19936;-81
2022/08/29 13:50:05;;;;;;;;;;;;;;;23.92;41.34;98264.72;5056359;28;20418;-81
2022/08/29 13:52:54;;;;;;;;;;;;;;;23.90;42.67;98261.53;5054905;28;19921;-85
2022/08/29 13:55:42;;;;;;;;;;;;;;;23.96;41.85;98254.41;5046834;28;19925;-85
2022/08/29 13:58:31;;;;;;;;;;;;;;;23.99;43.23;98264.75;5041335;28;19924;-83
2022/08/29 14:01:24;;;;;;;;;;;;;;;24.05;42.83;98265.16;5043058;28;20094;-85
2022/08/29 14:04:32;;;;;;;;;;;;;;;24.05;40.71;98257.63;5041239;28;19925;-82
2022/08/29 14:07:28;;;;;;;;;;;;;;;24.15;43.65;98263.59;5043726;28;20473;-83
2022/08/29 14:10:17;;;;;;;;;;;;;;;24.01;41.75;98248.47;5039020;28;20306;-85
2022/08/29 14:13:08;;;;;;;;;;;;;;;23.92;40.48;98245.31;5040987;28;19921;-87
2022/08/29 14:15:56;;;;;;;;;;;;;;;24.10;43.62;98250.91;5051525;28;20283;-85
2022/08/29 14:18:46;;;;;;;;;;;;;;;24.21;41.71;98243.38;5037215;28;19925;-82
2022/08/29 14:21:37;;;;;;;;;;;;;;;24.34;43.05;98248.53;5038673;28;19925;-80
2022/08/29 14:24:32;;;;;;;;;;;;;;;24.32;43.25;98246.16;5036613;28;19928;-82
2022/08/29 14:27:21;;;;;;;;;;;;;;;24.09;42.13;98245.75;5040582;28;20001;-83
2022/08/29 14:30:11;;;;;;;;;;;;;;;24.22;42.36;98236.63;5038565;28;19974;-85
2022/08/29 14:32:59;;;;;;;;;;;;;;;24.32;41.96;98243.41;5048444;28;19968;-87
2022/08/29 14:35:49;;;;;;;;;;;;;;;24.18;40.18;98229.47;5060590;28;19956;-81
2022/08/29 14:38:37;;;;;;;;;;;;;;;24.28;40.35;98229.50;5041756;28;19921;-84
2022/08/29 14:41:28;;;;;;;;;;;;;;;24.28;42.62;98231.47;5045872;28;20030;-82
2022/08/29 14:44:16;;;;;;;;;;;;;;;24.37;42.50;98233.91;5038525;28;19921;-82
2022/08/29 14:47:08;;;;;;;;;;;;;;;24.23;42.44;98237.44;5038185;28;19920;-82
2022/08/29 14:49:56;;;;;;;;;;;;;;;24.14;42.43;98228.69;5039127;28;19932;-82
2022/08/29 14:52:47;;;;;;;4.47;2.30;;;;;;;24.23;41.02;98229.09;5045920;28;20942;-80
2022/08/29 14:58:51;;;;;;;4.45;2.45;;;;;;;24.15;41.01;98231.06;5039025;28;20428;-82
2022/08/29 15:01:40;;;;;;;6.85;2.70;;;;;;;24.30;41.02;98234.69;5041585;28;20547;-77
2022/08/29 15:04:29;;;;;;;5.05;2.60;;;;;;;23.95;40.66;98222.31;5025856;28;20977;-79
2022/08/29 15:07:27;;;;;;;5.13;2.60;;;;;;;23.98;41.35;98226.28;5040214;28;20394;-80
2022/08/29 15:10:20;;;;;;;4.80;2.38;;;;;;;24.24;42.90;98219.59;5040363;28;20453;-80
2022/08/29 15:13:08;;;;;;;4.70;2.35;;;;;;;24.31;41.17;98223.16;5040739;28;20439;-79